sensor_id;sensor_type;location;lat;lon;timestamp;temperature;humidity
37996;DHT22;23808;50.634;6.948;2022-07-06T00:00:15;17.50;85.80
37996;DHT22;23808;50.634;6.948;2022-07-06T00:04:16;17.40;86.10
37996;DHT22;23808;50.634;6.948;2022-07-06T00:08:17;17.20;86.60
37996;DHT22;23808;50.634;6.948;2022-07-06T00:12:18;17.10;87.10
37996;DHT22;23808;50.634;6.948;2022-07-06T00:16:19;17.00;87.50
37996;DHT22;23808;50.634;6.948;2022-07-06T00:20:19;16.90;87.80
37996;DHT22;23808;50.634;6.948;2022-07-06T00:24:20;16.70;87.70
37996;DHT22;23808;50.634;6.948;2022-07-06T00:28:21;16.60;87.70
37996;DHT22;23808;50.634;6.948;2022-07-06T00:32:21;16.50;87.60
37996;DHT22;23808;50.634;6.948;2022-07-06T00:36:22;16.40;87.90
37996;DHT22;23808;50.634;6.948;2022-07-06T00:40:23;16.30;88.30
37996;DHT22;23808;50.634;6.948;2022-07-06T00:44:23;16.10;88.70
37996;DHT22;23808;50.634;6.948;2022-07-06T00:48:24;16.00;89.50
37996;DHT22;23808;50.634;6.948;2022-07-06T00:52:25;15.80;89.50
37996;DHT22;23808;50.634;6.948;2022-07-06T00:56:26;15.70;89.60
37996;DHT22;23808;50.634;6.948;2022-07-06T01:00:29;15.60;89.70
37996;DHT22;23808;50.634;6.948;2022-07-06T01:04:30;15.50;90.00
37996;DHT22;23808;50.634;6.948;2022-07-06T01:08:31;15.30;90.20
37996;DHT22;23808;50.634;6.948;2022-07-06T01:12:34;15.20;90.30
37996;DHT22;23808;50.634;6.948;2022-07-06T01:16:35;15.10;90.40
37996;DHT22;23808;50.634;6.948;2022-07-06T01:20:36;15.00;90.70
37996;DHT22;23808;50.634;6.948;2022-07-06T01:24:37;14.90;90.80
37996;DHT22;23808;50.634;6.948;2022-07-06T01:28:38;14.80;91.20
37996;DHT22;23808;50.634;6.948;2022-07-06T01:32:39;14.70;91.70
37996;DHT22;23808;50.634;6.948;2022-07-06T01:36:40;14.60;92.20
37996;DHT22;23808;50.634;6.948;2022-07-06T01:40:41;14.50;92.50
37996;DHT22;23808;50.634;6.948;2022-07-06T01:44:42;14.40;92.90
37996;DHT22;23808;50.634;6.948;2022-07-06T01:48:42;14.40;93.20
37996;DHT22;23808;50.634;6.948;2022-07-06T01:52:43;14.30;93.30
37996;DHT22;23808;50.634;6.948;2022-07-06T01:56:44;14.30;93.50
37996;DHT22;23808;50.634;6.948;2022-07-06T02:00:44;14.20;93.80
37996;DHT22;23808;50.634;6.948;2022-07-06T02:04:45;14.20;94.00
37996;DHT22;23808;50.634;6.948;2022-07-06T02:08:46;14.10;94.10
37996;DHT22;23808;50.634;6.948;2022-07-06T02:12:47;14.00;94.30
37996;DHT22;23808;50.634;6.948;2022-07-06T02:16:47;14.00;94.50
37996;DHT22;23808;50.634;6.948;2022-07-06T02:20:48;13.90;94.60
37996;DHT22;23808;50.634;6.948;2022-07-06T02:24:49;13.90;94.90
37996;DHT22;23808;50.634;6.948;2022-07-06T02:28:49;13.90;95.10
37996;DHT22;23808;50.634;6.948;2022-07-06T02:32:50;13.80;95.30
37996;DHT22;23808;50.634;6.948;2022-07-06T02:36:50;13.70;95.50
37996;DHT22;23808;50.634;6.948;2022-07-06T02:40:51;13.70;95.80
37996;DHT22;23808;50.634;6.948;2022-07-06T02:44:54;13.70;96.10
37996;DHT22;23808;50.634;6.948;2022-07-06T02:48:55;13.80;96.20
37996;DHT22;23808;50.634;6.948;2022-07-06T02:52:56;13.80;96.40
37996;DHT22;23808;50.634;6.948;2022-07-06T02:56:56;13.90;96.60
37996;DHT22;23808;50.634;6.948;2022-07-06T03:00:57;13.90;96.80
37996;DHT22;23808;50.634;6.948;2022-07-06T03:04:57;14.00;97.10
37996;DHT22;23808;50.634;6.948;2022-07-06T03:08:58;14.00;97.20
37996;DHT22;23808;50.634;6.948;2022-07-06T03:12:59;14.00;97.20
37996;DHT22;23808;50.634;6.948;2022-07-06T03:17:00;14.10;97.20
37996;DHT22;23808;50.634;6.948;2022-07-06T03:21:00;14.10;97.20
37996;DHT22;23808;50.634;6.948;2022-07-06T03:25:03;14.10;97.30
37996;DHT22;23808;50.634;6.948;2022-07-06T03:29:04;14.10;97.30
37996;DHT22;23808;50.634;6.948;2022-07-06T03:33:05;14.00;97.50
37996;DHT22;23808;50.634;6.948;2022-07-06T03:37:05;14.00;97.60
37996;DHT22;23808;50.634;6.948;2022-07-06T03:41:06;13.90;97.80
37996;DHT22;23808;50.634;6.948;2022-07-06T03:45:08;13.80;98.10
37996;DHT22;23808;50.634;6.948;2022-07-06T03:49:09;13.70;98.40
37996;DHT22;23808;50.634;6.948;2022-07-06T03:53:09;13.60;98.70
37996;DHT22;23808;50.634;6.948;2022-07-06T03:57:10;13.60;99.00
37996;DHT22;23808;50.634;6.948;2022-07-06T04:01:13;13.50;99.20
37996;DHT22;23808;50.634;6.948;2022-07-06T04:05:14;13.50;99.60
37996;DHT22;23808;50.634;6.948;2022-07-06T04:09:15;13.40;99.80
37996;DHT22;23808;50.634;6.948;2022-07-06T04:13:16;13.40;99.90
37996;DHT22;23808;50.634;6.948;2022-07-06T04:17:16;13.30;99.90
37996;DHT22;23808;50.634;6.948;2022-07-06T04:21:36;13.40;99.90
37996;DHT22;23808;50.634;6.948;2022-07-06T04:25:36;13.30;99.90
37996;DHT22;23808;50.634;6.948;2022-07-06T04:29:37;13.30;99.90
37996;DHT22;23808;50.634;6.948;2022-07-06T04:33:38;13.20;99.90
37996;DHT22;23808;50.634;6.948;2022-07-06T04:37:38;13.20;99.90
37996;DHT22;23808;50.634;6.948;2022-07-06T04:41:39;13.20;99.90
37996;DHT22;23808;50.634;6.948;2022-07-06T04:45:40;13.20;99.90
37996;DHT22;23808;50.634;6.948;2022-07-06T04:49:40;13.20;99.90
37996;DHT22;23808;50.634;6.948;2022-07-06T04:53:43;13.30;99.90
37996;DHT22;23808;50.634;6.948;2022-07-06T04:57:47;13.40;99.90
37996;DHT22;23808;50.634;6.948;2022-07-06T05:01:48;13.60;99.90
37996;DHT22;23808;50.634;6.948;2022-07-06T05:05:49;13.80;99.90
37996;DHT22;23808;50.634;6.948;2022-07-06T05:09:49;14.00;99.90
37996;DHT22;23808;50.634;6.948;2022-07-06T05:13:52;14.20;99.90
37996;DHT22;23808;50.634;6.948;2022-07-06T05:17:53;14.50;99.90
37996;DHT22;23808;50.634;6.948;2022-07-06T05:21:54;14.70;99.90
37996;DHT22;23808;50.634;6.948;2022-07-06T05:25:55;14.80;99.30
37996;DHT22;23808;50.634;6.948;2022-07-06T05:29:56;14.90;99.00
37996;DHT22;23808;50.634;6.948;2022-07-06T05:33:57;15.00;99.00
37996;DHT22;23808;50.634;6.948;2022-07-06T05:37:57;15.00;99.00
37996;DHT22;23808;50.634;6.948;2022-07-06T05:41:58;15.10;99.00
37996;DHT22;23808;50.634;6.948;2022-07-06T05:45:59;15.20;99.10
37996;DHT22;23808;50.634;6.948;2022-07-06T05:49:59;15.20;98.80
37996;DHT22;23808;50.634;6.948;2022-07-06T05:54:12;15.30;98.90
37996;DHT22;23808;50.634;6.948;2022-07-06T05:58:13;15.50;98.60
37996;DHT22;23808;50.634;6.948;2022-07-06T06:02:13;15.70;98.20
37996;DHT22;23808;50.634;6.948;2022-07-06T06:06:14;15.90;98.00
37996;DHT22;23808;50.634;6.948;2022-07-06T06:10:15;15.90;97.80
37996;DHT22;23808;50.634;6.948;2022-07-06T06:14:15;15.90;97.20
37996;DHT22;23808;50.634;6.948;2022-07-06T06:18:16;16.00;97.60
37996;DHT22;23808;50.634;6.948;2022-07-06T06:22:19;16.10;97.40
37996;DHT22;23808;50.634;6.948;2022-07-06T06:26:20;16.20;97.10
37996;DHT22;23808;50.634;6.948;2022-07-06T06:30:21;16.50;97.00
37996;DHT22;23808;50.634;6.948;2022-07-06T06:34:22;16.80;96.80
37996;DHT22;23808;50.634;6.948;2022-07-06T06:38:23;17.20;95.70
37996;DHT22;23808;50.634;6.948;2022-07-06T06:42:27;17.60;95.20
37996;DHT22;23808;50.634;6.948;2022-07-06T06:46:28;17.70;94.70
37996;DHT22;23808;50.634;6.948;2022-07-06T06:50:29;17.90;94.30
37996;DHT22;23808;50.634;6.948;2022-07-06T06:54:29;18.10;93.80
37996;DHT22;23808;50.634;6.948;2022-07-06T06:58:30;18.40;93.50
37996;DHT22;23808;50.634;6.948;2022-07-06T07:02:31;18.60;92.70
37996;DHT22;23808;50.634;6.948;2022-07-06T07:06:32;18.70;92.60
37996;DHT22;23808;50.634;6.948;2022-07-06T07:10:32;18.70;92.50
37996;DHT22;23808;50.634;6.948;2022-07-06T07:14:33;18.90;92.60
37996;DHT22;23808;50.634;6.948;2022-07-06T07:18:42;19.30;91.70
37996;DHT22;23808;50.634;6.948;2022-07-06T07:22:43;19.50;90.80
37996;DHT22;23808;50.634;6.948;2022-07-06T07:26:44;19.20;91.00
37996;DHT22;23808;50.634;6.948;2022-07-06T07:30:44;19.10;91.20
37996;DHT22;23808;50.634;6.948;2022-07-06T07:34:45;19.10;90.40
37996;DHT22;23808;50.634;6.948;2022-07-06T07:38:46;19.20;90.40
37996;DHT22;23808;50.634;6.948;2022-07-06T07:42:46;19.20;90.30
37996;DHT22;23808;50.634;6.948;2022-07-06T07:46:50;19.10;90.40
37996;DHT22;23808;50.634;6.948;2022-07-06T07:50:56;19.20;90.50
37996;DHT22;23808;50.634;6.948;2022-07-06T07:55:00;19.30;90.10
37996;DHT22;23808;50.634;6.948;2022-07-06T07:59:00;19.30;87.90
37996;DHT22;23808;50.634;6.948;2022-07-06T08:03:03;19.30;87.90
37996;DHT22;23808;50.634;6.948;2022-07-06T08:07:04;19.40;88.10
37996;DHT22;23808;50.634;6.948;2022-07-06T08:11:05;19.80;86.50
37996;DHT22;23808;50.634;6.948;2022-07-06T08:15:09;19.90;85.20
37996;DHT22;23808;50.634;6.948;2022-07-06T08:19:09;19.90;85.80
37996;DHT22;23808;50.634;6.948;2022-07-06T08:23:14;19.90;85.10
37996;DHT22;23808;50.634;6.948;2022-07-06T08:27:14;20.30;83.40
37996;DHT22;23808;50.634;6.948;2022-07-06T08:31:15;20.70;82.50
37996;DHT22;23808;50.634;6.948;2022-07-06T08:35:16;20.50;82.10
37996;DHT22;23808;50.634;6.948;2022-07-06T08:39:16;20.40;82.50
37996;DHT22;23808;50.634;6.948;2022-07-06T08:43:18;20.20;81.80
37996;DHT22;23808;50.634;6.948;2022-07-06T08:47:18;20.00;83.00
37996;DHT22;23808;50.634;6.948;2022-07-06T08:51:20;19.90;83.10
37996;DHT22;23808;50.634;6.948;2022-07-06T08:55:24;19.90;83.60
37996;DHT22;23808;50.634;6.948;2022-07-06T08:59:25;19.70;83.30
37996;DHT22;23808;50.634;6.948;2022-07-06T09:03:27;19.50;83.50
37996;DHT22;23808;50.634;6.948;2022-07-06T09:07:28;19.30;84.30
37996;DHT22;23808;50.634;6.948;2022-07-06T09:11:29;19.20;85.10
37996;DHT22;23808;50.634;6.948;2022-07-06T09:15:31;19.20;85.60
37996;DHT22;23808;50.634;6.948;2022-07-06T09:19:33;19.40;84.60
37996;DHT22;23808;50.634;6.948;2022-07-06T09:23:35;19.60;83.00
37996;DHT22;23808;50.634;6.948;2022-07-06T09:27:40;20.00;82.50
37996;DHT22;23808;50.634;6.948;2022-07-06T09:31:42;20.30;81.20
37996;DHT22;23808;50.634;6.948;2022-07-06T09:35:42;20.70;82.30
37996;DHT22;23808;50.634;6.948;2022-07-06T09:39:45;21.00;81.30
37996;DHT22;23808;50.634;6.948;2022-07-06T09:43:47;21.40;81.10
37996;DHT22;23808;50.634;6.948;2022-07-06T09:47:48;21.80;80.40
37996;DHT22;23808;50.634;6.948;2022-07-06T09:51:51;22.10;80.10
37996;DHT22;23808;50.634;6.948;2022-07-06T09:55:53;22.20;79.30
37996;DHT22;23808;50.634;6.948;2022-07-06T09:59:54;22.30;77.60
37996;DHT22;23808;50.634;6.948;2022-07-06T10:03:55;22.30;76.20
37996;DHT22;23808;50.634;6.948;2022-07-06T10:08:00;22.00;75.60
37996;DHT22;23808;50.634;6.948;2022-07-06T10:12:02;22.00;75.70
37996;DHT22;23808;50.634;6.948;2022-07-06T10:16:03;22.20;75.20
37996;DHT22;23808;50.634;6.948;2022-07-06T10:20:05;23.00;74.90
37996;DHT22;23808;50.634;6.948;2022-07-06T10:24:07;23.50;73.40
37996;DHT22;23808;50.634;6.948;2022-07-06T10:28:08;23.50;70.10
37996;DHT22;23808;50.634;6.948;2022-07-06T10:32:18;23.30;70.10
37996;DHT22;23808;50.634;6.948;2022-07-06T10:36:20;23.00;70.70
37996;DHT22;23808;50.634;6.948;2022-07-06T10:40:34;22.60;71.80
37996;DHT22;23808;50.634;6.948;2022-07-06T10:45:08;22.30;72.50
37996;DHT22;23808;50.634;6.948;2022-07-06T10:49:16;22.00;73.20
37996;DHT22;23808;50.634;6.948;2022-07-06T10:53:28;21.80;74.30
37996;DHT22;23808;50.634;6.948;2022-07-06T10:57:53;21.90;73.70
37996;DHT22;23808;50.634;6.948;2022-07-06T11:02:19;22.20;71.70
37996;DHT22;23808;50.634;6.948;2022-07-06T11:06:22;23.10;70.80
37996;DHT22;23808;50.634;6.948;2022-07-06T11:10:23;24.00;68.60
37996;DHT22;23808;50.634;6.948;2022-07-06T11:14:24;24.30;67.90
37996;DHT22;23808;50.634;6.948;2022-07-06T11:18:25;24.30;66.90
37996;DHT22;23808;50.634;6.948;2022-07-06T11:22:26;24.60;65.30
37996;DHT22;23808;50.634;6.948;2022-07-06T11:26:30;25.10;65.70
37996;DHT22;23808;50.634;6.948;2022-07-06T11:30:32;25.40;62.40
37996;DHT22;23808;50.634;6.948;2022-07-06T11:34:34;25.80;62.00
37996;DHT22;23808;50.634;6.948;2022-07-06T11:38:35;26.00;62.40
37996;DHT22;23808;50.634;6.948;2022-07-06T11:42:35;26.20;62.10
37996;DHT22;23808;50.634;6.948;2022-07-06T11:46:36;26.20;61.30
37996;DHT22;23808;50.634;6.948;2022-07-06T11:50:37;25.90;61.20
37996;DHT22;23808;50.634;6.948;2022-07-06T11:54:38;25.30;61.80
37996;DHT22;23808;50.634;6.948;2022-07-06T11:58:40;24.60;63.10
37996;DHT22;23808;50.634;6.948;2022-07-06T12:02:41;24.60;63.80
37996;DHT22;23808;50.634;6.948;2022-07-06T12:06:43;25.40;63.90
37996;DHT22;23808;50.634;6.948;2022-07-06T12:10:44;25.80;61.70
37996;DHT22;23808;50.634;6.948;2022-07-06T12:14:44;25.70;60.70
37996;DHT22;23808;50.634;6.948;2022-07-06T12:18:47;25.60;61.00
37996;DHT22;23808;50.634;6.948;2022-07-06T12:22:48;25.30;61.00
37996;DHT22;23808;50.634;6.948;2022-07-06T12:26:49;25.00;61.20
37996;DHT22;23808;50.634;6.948;2022-07-06T12:30:50;24.80;62.30
37996;DHT22;23808;50.634;6.948;2022-07-06T12:35:09;25.00;60.70
37996;DHT22;23808;50.634;6.948;2022-07-06T12:39:13;25.20;61.30
37996;DHT22;23808;50.634;6.948;2022-07-06T12:43:14;25.60;60.30
37996;DHT22;23808;50.634;6.948;2022-07-06T12:47:34;25.40;60.30
37996;DHT22;23808;50.634;6.948;2022-07-06T12:56:09;24.90;60.90
37996;DHT22;23808;50.634;6.948;2022-07-06T13:00:10;25.10;61.90
37996;DHT22;23808;50.634;6.948;2022-07-06T13:04:11;25.30;61.10
37996;DHT22;23808;50.634;6.948;2022-07-06T13:08:12;25.60;62.10
37996;DHT22;23808;50.634;6.948;2022-07-06T13:12:13;25.70;60.50
37996;DHT22;23808;50.634;6.948;2022-07-06T13:16:13;25.70;60.80
37996;DHT22;23808;50.634;6.948;2022-07-06T13:20:14;25.80;60.30
37996;DHT22;23808;50.634;6.948;2022-07-06T13:24:17;26.00;60.40
37996;DHT22;23808;50.634;6.948;2022-07-06T13:28:18;26.00;59.80
37996;DHT22;23808;50.634;6.948;2022-07-06T13:32:20;26.00;59.70
37996;DHT22;23808;50.634;6.948;2022-07-06T13:36:21;25.80;59.70
37996;DHT22;23808;50.634;6.948;2022-07-06T13:40:22;25.60;59.70
37996;DHT22;23808;50.634;6.948;2022-07-06T13:44:24;25.60;59.80
37996;DHT22;23808;50.634;6.948;2022-07-06T13:48:24;25.50;58.80
37996;DHT22;23808;50.634;6.948;2022-07-06T13:52:25;25.10;59.50
37996;DHT22;23808;50.634;6.948;2022-07-06T13:56:26;24.80;59.20
37996;DHT22;23808;50.634;6.948;2022-07-06T14:00:27;24.60;59.60
37996;DHT22;23808;50.634;6.948;2022-07-06T14:04:28;24.90;61.10
37996;DHT22;23808;50.634;6.948;2022-07-06T14:08:29;25.30;59.90
37996;DHT22;23808;50.634;6.948;2022-07-06T14:12:30;25.70;58.90
37996;DHT22;23808;50.634;6.948;2022-07-06T14:16:30;26.00;58.70
37996;DHT22;23808;50.634;6.948;2022-07-06T14:20:31;26.40;57.10
37996;DHT22;23808;50.634;6.948;2022-07-06T14:24:32;26.60;57.20
37996;DHT22;23808;50.634;6.948;2022-07-06T14:28:32;27.00;57.30
37996;DHT22;23808;50.634;6.948;2022-07-06T14:32:33;26.90;57.10
37996;DHT22;23808;50.634;6.948;2022-07-06T14:36:34;26.60;57.70
37996;DHT22;23808;50.634;6.948;2022-07-06T14:40:38;26.60;58.10
37996;DHT22;23808;50.634;6.948;2022-07-06T14:44:39;26.90;57.90
37996;DHT22;23808;50.634;6.948;2022-07-06T14:49:01;27.10;57.10
37996;DHT22;23808;50.634;6.948;2022-07-06T14:53:02;27.40;56.50
37996;DHT22;23808;50.634;6.948;2022-07-06T14:57:03;27.40;55.80
37996;DHT22;23808;50.634;6.948;2022-07-06T15:01:04;27.70;55.80
37996;DHT22;23808;50.634;6.948;2022-07-06T15:05:05;27.80;55.80
37996;DHT22;23808;50.634;6.948;2022-07-06T15:09:06;27.90;55.60
37996;DHT22;23808;50.634;6.948;2022-07-06T15:13:06;27.80;55.70
37996;DHT22;23808;50.634;6.948;2022-07-06T15:17:07;27.80;54.70
37996;DHT22;23808;50.634;6.948;2022-07-06T15:21:08;27.70;54.80
37996;DHT22;23808;50.634;6.948;2022-07-06T15:25:09;27.80;55.20
37996;DHT22;23808;50.634;6.948;2022-07-06T15:29:10;28.00;55.90
37996;DHT22;23808;50.634;6.948;2022-07-06T15:33:11;28.00;55.10
37996;DHT22;23808;50.634;6.948;2022-07-06T15:37:12;27.70;55.60
37996;DHT22;23808;50.634;6.948;2022-07-06T15:41:12;27.30;55.50
37996;DHT22;23808;50.634;6.948;2022-07-06T15:45:13;26.80;56.90
37996;DHT22;23808;50.634;6.948;2022-07-06T15:49:14;26.90;56.90
37996;DHT22;23808;50.634;6.948;2022-07-06T15:53:14;27.10;55.60
37996;DHT22;23808;50.634;6.948;2022-07-06T15:57:16;26.90;55.40
37996;DHT22;23808;50.634;6.948;2022-07-06T16:01:16;26.60;56.30
37996;DHT22;23808;50.634;6.948;2022-07-06T16:05:17;26.60;56.60
37996;DHT22;23808;50.634;6.948;2022-07-06T16:09:21;26.80;56.20
37996;DHT22;23808;50.634;6.948;2022-07-06T16:13:22;27.10;55.90
37996;DHT22;23808;50.634;6.948;2022-07-06T16:17:22;27.20;56.00
37996;DHT22;23808;50.634;6.948;2022-07-06T16:21:23;27.10;55.50
37996;DHT22;23808;50.634;6.948;2022-07-06T16:25:23;27.20;56.30
37996;DHT22;23808;50.634;6.948;2022-07-06T16:29:25;27.20;55.70
37996;DHT22;23808;50.634;6.948;2022-07-06T16:33:26;27.10;56.20
37996;DHT22;23808;50.634;6.948;2022-07-06T16:37:26;27.20;55.60
37996;DHT22;23808;50.634;6.948;2022-07-06T16:41:27;27.00;55.80
37996;DHT22;23808;50.634;6.948;2022-07-06T16:45:28;27.00;55.10
37996;DHT22;23808;50.634;6.948;2022-07-06T16:49:28;26.90;55.50
37996;DHT22;23808;50.634;6.948;2022-07-06T16:53:29;26.70;55.80
37996;DHT22;23808;50.634;6.948;2022-07-06T16:57:30;26.70;55.70
37996;DHT22;23808;50.634;6.948;2022-07-06T17:01:30;26.60;56.20
37996;DHT22;23808;50.634;6.948;2022-07-06T17:05:31;26.40;56.50
37996;DHT22;23808;50.634;6.948;2022-07-06T17:09:31;26.00;57.20
37996;DHT22;23808;50.634;6.948;2022-07-06T17:13:32;25.80;57.50
37996;DHT22;23808;50.634;6.948;2022-07-06T17:17:33;25.80;56.60
37996;DHT22;23808;50.634;6.948;2022-07-06T17:21:33;25.70;56.90
37996;DHT22;23808;50.634;6.948;2022-07-06T17:25:34;25.70;57.30
37996;DHT22;23808;50.634;6.948;2022-07-06T17:29:35;25.60;57.40
37996;DHT22;23808;50.634;6.948;2022-07-06T17:33:35;25.40;57.80
37996;DHT22;23808;50.634;6.948;2022-07-06T17:37:36;25.20;58.30
37996;DHT22;23808;50.634;6.948;2022-07-06T17:41:36;25.20;58.90
37996;DHT22;23808;50.634;6.948;2022-07-06T17:45:38;25.10;58.50
37996;DHT22;23808;50.634;6.948;2022-07-06T17:49:39;24.90;59.50
37996;DHT22;23808;50.634;6.948;2022-07-06T17:53:39;24.90;60.40
37996;DHT22;23808;50.634;6.948;2022-07-06T17:57:40;24.70;59.80
37996;DHT22;23808;50.634;6.948;2022-07-06T18:01:40;24.40;60.70
37996;DHT22;23808;50.634;6.948;2022-07-06T18:05:41;24.20;61.40
37996;DHT22;23808;50.634;6.948;2022-07-06T18:09:42;24.00;61.90
37996;DHT22;23808;50.634;6.948;2022-07-06T18:13:44;23.90;62.00
37996;DHT22;23808;50.634;6.948;2022-07-06T18:17:44;23.70;62.90
37996;DHT22;23808;50.634;6.948;2022-07-06T18:21:45;23.50;63.20
37996;DHT22;23808;50.634;6.948;2022-07-06T18:25:46;23.30;63.40
37996;DHT22;23808;50.634;6.948;2022-07-06T18:29:46;23.20;63.70
37996;DHT22;23808;50.634;6.948;2022-07-06T18:33:47;23.10;64.70
37996;DHT22;23808;50.634;6.948;2022-07-06T18:37:48;23.00;65.20
37996;DHT22;23808;50.634;6.948;2022-07-06T18:41:48;22.90;65.20
37996;DHT22;23808;50.634;6.948;2022-07-06T18:45:49;23.00;65.60
37996;DHT22;23808;50.634;6.948;2022-07-06T18:49:51;22.90;65.70
37996;DHT22;23808;50.634;6.948;2022-07-06T18:53:53;22.80;66.20
37996;DHT22;23808;50.634;6.948;2022-07-06T18:57:54;22.70;66.50
37996;DHT22;23808;50.634;6.948;2022-07-06T19:01:54;22.60;67.00
37996;DHT22;23808;50.634;6.948;2022-07-06T19:05:55;22.40;67.10
37996;DHT22;23808;50.634;6.948;2022-07-06T19:09:55;22.40;67.80
37996;DHT22;23808;50.634;6.948;2022-07-06T19:13:56;22.20;68.20
37996;DHT22;23808;50.634;6.948;2022-07-06T19:17:59;22.10;68.40
37996;DHT22;23808;50.634;6.948;2022-07-06T19:21:59;22.00;68.80
37996;DHT22;23808;50.634;6.948;2022-07-06T19:26:02;21.90;69.70
37996;DHT22;23808;50.634;6.948;2022-07-06T19:30:04;21.80;70.10
37996;DHT22;23808;50.634;6.948;2022-07-06T19:34:05;21.60;70.20
37996;DHT22;23808;50.634;6.948;2022-07-06T19:38:06;21.50;70.40
37996;DHT22;23808;50.634;6.948;2022-07-06T19:42:06;21.50;71.00
37996;DHT22;23808;50.634;6.948;2022-07-06T19:46:07;21.30;71.30
37996;DHT22;23808;50.634;6.948;2022-07-06T19:50:09;21.20;71.60
37996;DHT22;23808;50.634;6.948;2022-07-06T19:54:10;21.10;72.10
37996;DHT22;23808;50.634;6.948;2022-07-06T19:58:10;21.00;72.80
37996;DHT22;23808;50.634;6.948;2022-07-06T20:02:11;20.90;73.80
37996;DHT22;23808;50.634;6.948;2022-07-06T20:06:12;20.70;74.60
37996;DHT22;23808;50.634;6.948;2022-07-06T20:10:15;20.70;75.20
37996;DHT22;23808;50.634;6.948;2022-07-06T20:14:16;20.60;75.80
37996;DHT22;23808;50.634;6.948;2022-07-06T20:18:17;20.50;75.40
37996;DHT22;23808;50.634;6.948;2022-07-06T20:22:17;20.50;75.70
37996;DHT22;23808;50.634;6.948;2022-07-06T20:26:18;20.50;75.90
37996;DHT22;23808;50.634;6.948;2022-07-06T20:30:18;20.50;76.10
37996;DHT22;23808;50.634;6.948;2022-07-06T20:34:19;20.40;76.20
37996;DHT22;23808;50.634;6.948;2022-07-06T20:38:20;20.30;76.00
37996;DHT22;23808;50.634;6.948;2022-07-06T20:42:21;20.30;76.40
37996;DHT22;23808;50.634;6.948;2022-07-06T20:46:21;20.20;76.80
37996;DHT22;23808;50.634;6.948;2022-07-06T20:50:22;20.20;76.70
37996;DHT22;23808;50.634;6.948;2022-07-06T20:54:22;20.20;77.20
37996;DHT22;23808;50.634;6.948;2022-07-06T20:58:23;20.10;77.40
37996;DHT22;23808;50.634;6.948;2022-07-06T21:02:24;20.10;77.20
37996;DHT22;23808;50.634;6.948;2022-07-06T21:06:24;20.10;77.40
37996;DHT22;23808;50.634;6.948;2022-07-06T21:10:25;20.10;77.20
37996;DHT22;23808;50.634;6.948;2022-07-06T21:14:26;20.10;77.70
37996;DHT22;23808;50.634;6.948;2022-07-06T21:18:26;20.10;77.80
37996;DHT22;23808;50.634;6.948;2022-07-06T21:22:27;20.10;77.70
37996;DHT22;23808;50.634;6.948;2022-07-06T21:26:27;20.10;77.80
37996;DHT22;23808;50.634;6.948;2022-07-06T21:30:28;20.00;78.00
37996;DHT22;23808;50.634;6.948;2022-07-06T21:34:29;20.10;77.70
37996;DHT22;23808;50.634;6.948;2022-07-06T21:38:32;20.10;77.90
37996;DHT22;23808;50.634;6.948;2022-07-06T21:42:33;20.10;78.00
37996;DHT22;23808;50.634;6.948;2022-07-06T21:46:34;20.10;78.20
37996;DHT22;23808;50.634;6.948;2022-07-06T21:50:34;20.10;78.60
37996;DHT22;23808;50.634;6.948;2022-07-06T21:54:35;20.10;78.50
37996;DHT22;23808;50.634;6.948;2022-07-06T21:58:37;20.10;78.50
37996;DHT22;23808;50.634;6.948;2022-07-06T22:02:40;20.00;78.80
37996;DHT22;23808;50.634;6.948;2022-07-06T22:06:41;20.00;79.00
37996;DHT22;23808;50.634;6.948;2022-07-06T22:10:41;20.00;78.70
37996;DHT22;23808;50.634;6.948;2022-07-06T22:14:42;19.90;79.30
37996;DHT22;23808;50.634;6.948;2022-07-06T22:18:44;19.90;79.50
37996;DHT22;23808;50.634;6.948;2022-07-06T22:22:45;19.90;80.20
37996;DHT22;23808;50.634;6.948;2022-07-06T22:26:46;19.90;79.80
37996;DHT22;23808;50.634;6.948;2022-07-06T22:30:46;19.80;79.90
37996;DHT22;23808;50.634;6.948;2022-07-06T22:34:47;19.80;80.30
37996;DHT22;23808;50.634;6.948;2022-07-06T22:38:48;19.80;80.20
37996;DHT22;23808;50.634;6.948;2022-07-06T22:42:49;19.80;80.60
37996;DHT22;23808;50.634;6.948;2022-07-06T22:46:49;19.80;81.00
37996;DHT22;23808;50.634;6.948;2022-07-06T22:50:50;19.80;81.00
37996;DHT22;23808;50.634;6.948;2022-07-06T22:54:51;19.70;81.30
37996;DHT22;23808;50.634;6.948;2022-07-06T22:58:52;19.80;81.60
37996;DHT22;23808;50.634;6.948;2022-07-06T23:02:52;19.70;81.50
37996;DHT22;23808;50.634;6.948;2022-07-06T23:06:53;19.80;82.00
37996;DHT22;23808;50.634;6.948;2022-07-06T23:10:53;19.80;81.70
37996;DHT22;23808;50.634;6.948;2022-07-06T23:14:54;19.80;82.10
37996;DHT22;23808;50.634;6.948;2022-07-06T23:18:55;19.80;82.30
37996;DHT22;23808;50.634;6.948;2022-07-06T23:22:55;19.80;82.50
37996;DHT22;23808;50.634;6.948;2022-07-06T23:26:56;19.80;82.60
37996;DHT22;23808;50.634;6.948;2022-07-06T23:30:56;19.80;82.90
37996;DHT22;23808;50.634;6.948;2022-07-06T23:34:57;19.80;83.00
37996;DHT22;23808;50.634;6.948;2022-07-06T23:38:58;19.80;83.20
37996;DHT22;23808;50.634;6.948;2022-07-06T23:42:59;19.80;83.60
37996;DHT22;23808;50.634;6.948;2022-07-06T23:46:59;19.70;83.50
37996;DHT22;23808;50.634;6.948;2022-07-06T23:51:00;19.80;83.80
37996;DHT22;23808;50.634;6.948;2022-07-06T23:55:01;19.70;83.90
37996;DHT22;23808;50.634;6.948;2022-07-06T23:59:01;19.70;83.90
